Terminal Aerodrome Forecast
Issued by NWS

Home | Current Version | Previous Version | Graphics & Text | Print | Product List | Glossary On
Versions: 1 2 3 4 5 6 7 8 9 10 11 12 13 14 15 16 17 18 19 20 21 22 23 24 25 26 27 28 29 30 31 32 33 34 35 36 37 38 39 40 41 42
000
FTUS43 KGRB 251724
TAFATW
TAF
KATW 251724Z 2518/2618 20010G14KT P6SM BKN028
     FM252000 21011G16KT P6SM BKN035
     FM260400 18006KT P6SM BKN200 PROB30 2607/2611 4SM -TSRA
      OVC030CB
     FM261100 21008KT P6SM BKN150
      TEMPO 2611/2613 3SM TSRA BR OVC025CB
     FM261400 22009KT 6SM BR BKN100=

USA.gov is the U.S. government's official web portal to all federal, state and local government web resources and services.